Climatologie pour Saint-Brevin les Pins
Jour • Résumé pour février 14, 2017 Système :  Métrique    Anglais   Mixte
« - 1 jour
+ 1 jour »
Jour Semaine Mois Année Personnalisé
  Maximum : Minimum : Moyenne :
Température sous abri : 14.7 °C 8.4 °C 11 °C
Point de rosée : 12.3 °C 7.6 °C 9.8 °C
Humidité : 98 % 79 % 93 %
Vitesse du vent : 12.9 km/h 0.0 km/h 3.9 km/h
Rafale : 20.9 km/h - -
Direction :- - SSE
Pression : 1024.3 hPa 1012.4 hPa -
Précipitations : 1.5 mm    
Historical Graphs
 
 
Tableau de données pour février 14, 2017
Heure Tempé Pt rosée Pression Vent Vitesse Rafale Humidité Taux pluie (/hr) Soleil
00:00 10.6 °C 10.0 °C 1012.4 hPa SE 4.8 km/h 14.5 km/h 96 % 0.5 mm 0 W/m2
00:10 10.6 °C 10.0 °C 1012.4 hPa ESE 12.9 km/h 14.5 km/h 96 % 0.5 mm 0 W/m2
00:15 10.6 °C 10.0 °C 1012.4 hPa SSE 8.0 km/h 14.5 km/h 96 % 0.3 mm 0 W/m2
00:20 10.6 °C 10.0 °C 1012.8 hPa ESE 6.4 km/h 14.5 km/h 96 % 0.3 mm 0 W/m2
00:25 10.6 °C 10.0 °C 1012.8 hPa SSE 8.0 km/h 16.1 km/h 96 % 0.3 mm 0 W/m2
00:30 10.6 °C 10.0 °C 1012.8 hPa SE 4.8 km/h 16.1 km/h 96 % 0.3 mm 0 W/m2
00:35 10.6 °C 10.0 °C 1012.8 hPa SSE 8.0 km/h 12.9 km/h 96 % 0.3 mm 0 W/m2
00:40 10.6 °C 10.0 °C 1012.8 hPa SE 3.2 km/h 11.3 km/h 96 % 0.3 mm 0 W/m2
00:45 10.6 °C 10.0 °C 1012.8 hPa ENE 8.0 km/h 12.9 km/h 96 % 0.3 mm 0 W/m2
00:50 10.6 °C 10.0 °C 1012.8 hPa SE 4.8 km/h 12.9 km/h 96 % 0.3 mm 0 W/m2
01:00 10.6 °C 10.0 °C 1013.1 hPa Calm   14.5 km/h 96 % 0.0 mm 0 W/m2
01:10 10.6 °C 9.9 °C 1012.8 hPa SE 3.2 km/h 8.0 km/h 96 % 0.0 mm 0 W/m2
01:20 10.5 °C 9.9 °C 1013.1 hPa SE 4.8 km/h 11.3 km/h 96 % 0.0 mm 0 W/m2
01:25 10.5 °C 9.9 °C 1013.1 hPa SE 1.6 km/h 11.3 km/h 96 % 0.0 mm 0 W/m2
01:35 10.4 °C 9.8 °C 1013.1 hPa SE 1.6 km/h 9.7 km/h 96 % 0.0 mm 0 W/m2
01:40 10.4 °C 9.8 °C 1013.1 hPa ESE 3.2 km/h 9.7 km/h 96 % 0.0 mm 0 W/m2
01:45 10.4 °C 9.8 °C 1013.1 hPa ESE 3.2 km/h 9.7 km/h 96 % 0.0 mm 0 W/m2
01:55 10.4 °C 9.8 °C 1013.1 hPa ESE 3.2 km/h 12.9 km/h 96 % 0.3 mm 0 W/m2
02:00 10.3 °C 9.7 °C 1013.1 hPa SE 6.4 km/h 12.9 km/h 96 % 0.3 mm 0 W/m2
02:05 10.3 °C 9.7 °C 1013.1 hPa East 3.2 km/h 11.3 km/h 96 % 0.3 mm 0 W/m2
02:20 10.3 °C 9.7 °C 1013.1 hPa SE 4.8 km/h 11.3 km/h 96 % 0.5 mm 0 W/m2
02:35 10.3 °C 9.7 °C 1013.4 hPa SE 4.8 km/h 11.3 km/h 96 % 0.5 mm 0 W/m2
02:40 10.3 °C 9.7 °C 1013.1 hPa ESE 3.2 km/h 11.3 km/h 96 % 0.5 mm 0 W/m2
02:45 10.3 °C 9.7 °C 1013.4 hPa ESE 4.8 km/h 9.7 km/h 96 % 0.5 mm 0 W/m2
02:50 10.3 °C 9.7 °C 1013.4 hPa ESE 4.8 km/h 11.3 km/h 96 % 0.5 mm 0 W/m2
02:55 10.3 °C 9.7 °C 1013.4 hPa SE 4.8 km/h 11.3 km/h 96 % 0.3 mm 0 W/m2
03:00 10.3 °C 9.7 °C 1013.4 hPa ESE 6.4 km/h 12.9 km/h 96 % 0.3 mm 0 W/m2
03:10 10.3 °C 9.7 °C 1013.4 hPa ESE 3.2 km/h 12.9 km/h 96 % 0.3 mm 0 W/m2
03:15 10.3 °C 9.7 °C 1013.8 hPa ESE 1.6 km/h 8.0 km/h 96 % 0.3 mm 0 W/m2
03:25 10.3 °C 9.7 °C 1013.8 hPa SSE 1.6 km/h 12.9 km/h 96 % 0.0 mm 0 W/m2
03:30 10.3 °C 9.7 °C 1013.8 hPa SE 3.2 km/h 12.9 km/h 96 % 0.3 mm 0 W/m2
03:40 10.3 °C 9.8 °C 1013.8 hPa SE 4.8 km/h 8.0 km/h 97 % 0.3 mm 0 W/m2
03:45 10.3 °C 9.7 °C 1013.8 hPa SE 6.4 km/h 9.7 km/h 96 % 0.5 mm 0 W/m2
03:50 10.3 °C 9.7 °C 1013.8 hPa Calm   9.7 km/h 96 % 0.5 mm 0 W/m2
03:55 10.3 °C 9.7 °C 1013.8 hPa Calm   8.0 km/h 96 % 0.5 mm 0 W/m2
04:00 10.3 °C 9.7 °C 1013.8 hPa SSE 8.0 km/h 11.3 km/h 96 % 0.5 mm 0 W/m2
04:10 10.3 °C 9.7 °C 1013.8 hPa SE 3.2 km/h 12.9 km/h 96 % 0.5 mm 0 W/m2
04:20 10.3 °C 9.8 °C 1013.8 hPa SSE 4.8 km/h 14.5 km/h 97 % 0.5 mm 0 W/m2
04:25 10.3 °C 9.8 °C 1013.8 hPa SSE 1.6 km/h 14.5 km/h 97 % 0.5 mm 0 W/m2
04:35 10.3 °C 9.7 °C 1014.1 hPa South 4.8 km/h 8.0 km/h 96 % 0.3 mm 0 W/m2
04:40 10.3 °C 9.8 °C 1014.1 hPa SSE 6.4 km/h 8.0 km/h 97 % 0.5 mm 0 W/m2
04:50 10.3 °C 9.8 °C 1014.1 hPa South 1.6 km/h 9.7 km/h 97 % 0.5 mm 0 W/m2
04:55 10.3 °C 9.8 °C 1014.1 hPa South 4.8 km/h 8.0 km/h 97 % 0.5 mm 0 W/m2
05:00 10.3 °C 9.8 °C 1014.1 hPa SSE 3.2 km/h 8.0 km/h 97 % 0.5 mm 0 W/m2
05:10 10.3 °C 9.8 °C 1014.1 hPa SSE 3.2 km/h 6.4 km/h 97 % 0.5 mm 0 W/m2
05:15 10.2 °C 9.8 °C 1014.1 hPa South 3.2 km/h 4.8 km/h 97 % 0.5 mm 0 W/m2
05:20 10.2 °C 9.8 °C 1014.4 hPa South 1.6 km/h 4.8 km/h 97 % 0.5 mm 0 W/m2
05:25 10.2 °C 9.8 °C 1014.4 hPa South 3.2 km/h 6.4 km/h 97 % 0.5 mm 0 W/m2
05:30 10.2 °C 9.8 °C 1014.4 hPa SSE 3.2 km/h 8.0 km/h 97 % 0.5 mm 0 W/m2
05:40 10.3 °C 9.8 °C 1014.8 hPa SSE 4.8 km/h 8.0 km/h 97 % 0.5 mm 0 W/m2
05:45 10.3 °C 9.8 °C 1014.8 hPa South 6.4 km/h 9.7 km/h 97 % 0.3 mm 0 W/m2
05:50 10.3 °C 9.8 °C 1015.1 hPa South 6.4 km/h 9.7 km/h 97 % 0.3 mm 0 W/m2
05:55 10.2 °C 9.8 °C 1015.1 hPa SSW 4.8 km/h 11.3 km/h 97 % 0.0 mm 0 W/m2
06:00 10.2 °C 9.8 °C 1015.1 hPa South 4.8 km/h 11.3 km/h 97 % 0.0 mm 0 W/m2
06:10 10.2 °C 9.7 °C 1015.1 hPa SSE 8.0 km/h 11.3 km/h 97 % 0.0 mm 0 W/m2
06:15 10.2 °C 9.7 °C 1015.1 hPa SSW 4.8 km/h 11.3 km/h 97 % 0.0 mm 0 W/m2
06:20 10.1 °C 9.7 °C 1015.1 hPa South 4.8 km/h 9.7 km/h 97 % 0.0 mm 0 W/m2
06:25 10.1 °C 9.7 °C 1015.5 hPa South 4.8 km/h 6.4 km/h 97 % 0.0 mm 0 W/m2
06:30 10.1 °C 9.6 °C 1015.5 hPa South 3.2 km/h 6.4 km/h 97 % 0.0 mm 0 W/m2
06:40 10.0 °C 9.5 °C 1015.5 hPa SSW 4.8 km/h 9.7 km/h 97 % 0.0 mm 0 W/m2
06:45 9.9 °C 9.5 °C 1015.5 hPa SSW 8.0 km/h 11.3 km/h 97 % 0.0 mm 0 W/m2
06:50 9.9 °C 9.5 °C 1015.8 hPa South 3.2 km/h 11.3 km/h 97 % 0.0 mm 0 W/m2
06:55 9.9 °C 9.4 °C 1015.8 hPa South 4.8 km/h 11.3 km/h 97 % 0.0 mm 0 W/m2
07:00 9.9 °C 9.4 °C 1015.8 hPa South 8.0 km/h 9.7 km/h 97 % 0.0 mm 0 W/m2
07:10 9.8 °C 9.4 °C 1015.8 hPa South 1.6 km/h 8.0 km/h 97 % 0.0 mm 0 W/m2
07:15 9.8 °C 9.4 °C 1015.8 hPa South 3.2 km/h 6.4 km/h 97 % 0.0 mm 0 W/m2
07:25 9.8 °C 9.3 °C 1015.8 hPa South 1.6 km/h 6.4 km/h 97 % 0.0 mm 0 W/m2
07:30 9.7 °C 9.3 °C 1015.8 hPa Calm   4.8 km/h 97 % 0.0 mm 0 W/m2
07:40 9.7 °C 9.2 °C 1016.1 hPa Calm   4.8 km/h 97 % 0.0 mm 0 W/m2
07:45 9.6 °C 9.2 °C 1016.5 hPa South 3.2 km/h 4.8 km/h 97 % 0.0 mm 0 W/m2
07:55 9.6 °C 9.1 °C 1016.5 hPa Calm   8.0 km/h 97 % 0.0 mm 0 W/m2
08:00 9.6 °C 9.1 °C 1016.5 hPa South 1.6 km/h 8.0 km/h 97 % 0.0 mm 0 W/m2
08:10 9.5 °C 9.0 °C 1016.8 hPa Calm   3.2 km/h 97 % 0.0 mm 0 W/m2
08:20 9.3 °C 8.8 °C 1016.8 hPa Calm     97 % 0.0 mm 0 W/m2
08:25 9.2 °C 8.6 °C 1017.2 hPa Calm     96 % 0.0 mm 0 W/m2
08:30 9.1 °C 8.6 °C 1017.2 hPa Calm   3.2 km/h 97 % 0.0 mm 5 W/m2
08:35 9.0 °C 8.5 °C 1017.2 hPa SSW 6.4 km/h 8.0 km/h 97 % 0.0 mm 5 W/m2
08:40 9.0 °C 8.5 °C 1017.5 hPa South 1.6 km/h 11.3 km/h 97 % 0.0 mm 0 W/m2
08:45 9.1 °C 8.7 °C 1017.5 hPa South 4.8 km/h 11.3 km/h 97 % 0.0 mm 7 W/m2
08:50 9.2 °C 8.8 °C 1017.5 hPa SW 3.2 km/h 9.7 km/h 97 % 0.0 mm 16 W/m2
08:55 9.4 °C 8.9 °C 1017.5 hPa South 4.8 km/h 12.9 km/h 97 % 0.0 mm 18 W/m2
09:00 9.5 °C 9.0 °C 1017.8 hPa SSW 3.2 km/h 12.9 km/h 97 % 0.0 mm 26 W/m2
09:10 9.6 °C 9.2 °C 1017.8 hPa SSW 3.2 km/h 11.3 km/h 97 % 0.0 mm 26 W/m2
09:15 9.7 °C 9.2 °C 1018.2 hPa SSW 6.4 km/h 11.3 km/h 97 % 0.0 mm 39 W/m2
09:20 9.7 °C 9.3 °C 1018.2 hPa SSW 1.6 km/h 9.7 km/h 97 % 0.0 mm 44 W/m2
09:30 9.8 °C 9.4 °C 1018.2 hPa SSW 3.2 km/h 8.0 km/h 97 % 0.0 mm 53 W/m2
09:40 9.9 °C 9.5 °C 1018.5 hPa SSW 4.8 km/h 4.8 km/h 97 % 0.0 mm 56 W/m2
09:45 10.0 °C 9.5 °C 1018.5 hPa Calm   4.8 km/h 97 % 0.0 mm 69 W/m2
09:50 10.1 °C 9.7 °C 1018.5 hPa SSW 3.2 km/h 4.8 km/h 97 % 0.0 mm 60 W/m2
09:55 10.2 °C 9.7 °C 1018.5 hPa SSW 1.6 km/h 6.4 km/h 97 % 0.0 mm 60 W/m2
10:00 10.3 °C 10.0 °C 1018.5 hPa SSW 6.4 km/h 6.4 km/h 98 % 0.0 mm 67 W/m2
10:10 10.4 °C 10.0 °C 1018.5 hPa SSW 4.8 km/h 6.4 km/h 97 % 0.0 mm 63 W/m2
10:15 10.6 °C 10.3 °C 1018.5 hPa South 4.8 km/h 6.4 km/h 98 % 0.0 mm 88 W/m2
10:25 10.7 °C 10.4 °C 1018.5 hPa Calm   9.7 km/h 98 % 0.0 mm 97 W/m2
10:30 10.8 °C 10.5 °C 1018.8 hPa South 1.6 km/h 8.0 km/h 98 % 0.0 mm 120 W/m2
10:40 10.9 °C 10.6 °C 1018.8 hPa Calm   8.0 km/h 98 % 0.0 mm 100 W/m2
10:45 11.0 °C 10.7 °C 1018.8 hPa SSW 3.2 km/h 8.0 km/h 98 % 0.0 mm 104 W/m2
10:55 11.3 °C 11.0 °C 1018.8 hPa South 1.6 km/h 8.0 km/h 98 % 0.0 mm 253 W/m2
11:00 11.4 °C 11.0 °C 1018.8 hPa South 3.2 km/h 8.0 km/h 97 % 0.0 mm 220 W/m2
11:10 11.9 °C 11.6 °C 1019.2 hPa South 4.8 km/h 6.4 km/h 98 % 0.0 mm 348 W/m2
11:20 12.2 °C 11.5 °C 1019.2 hPa Calm   6.4 km/h 96 % 0.0 mm 192 W/m2
11:25 12.3 °C 11.7 °C 1019.2 hPa South 8.0 km/h 8.0 km/h 96 % 0.0 mm 415 W/m2
11:30 12.7 °C 11.9 °C 1019.5 hPa South 6.4 km/h 8.0 km/h 95 % 0.0 mm 148 W/m2
11:40 12.3 °C 11.5 °C 1019.5 hPa Calm   6.4 km/h 95 % 0.0 mm 207 W/m2
11:45 12.3 °C 11.5 °C 1019.9 hPa SSW 3.2 km/h 6.4 km/h 95 % 0.0 mm 91 W/m2
11:55 12.2 °C 11.2 °C 1019.9 hPa SSW 9.7 km/h 9.7 km/h 94 % 0.0 mm 221 W/m2
12:00 12.6 °C 11.6 °C 1019.9 hPa SSW 4.8 km/h 9.7 km/h 94 % 0.0 mm 478 W/m2
12:10 12.8 °C 11.2 °C 1020.2 hPa SW 4.8 km/h 8.0 km/h 90 % 0.0 mm 471 W/m2
12:15 13.1 °C 11.5 °C 1020.2 hPa Calm   8.0 km/h 90 % 0.0 mm 499 W/m2
12:20 13.3 °C 11.5 °C 1020.2 hPa South 1.6 km/h 11.3 km/h 89 % 0.0 mm 186 W/m2
12:25 13.0 °C 11.2 °C 1020.5 hPa SSW 3.2 km/h 11.3 km/h 89 % 0.0 mm 566 W/m2
12:30 13.6 °C 12.3 °C 1020.5 hPa WSW 4.8 km/h 8.0 km/h 92 % 0.0 mm 480 W/m2
12:40 12.8 °C 11.3 °C 1020.5 hPa SSW 6.4 km/h 12.9 km/h 91 % 0.0 mm 295 W/m2
12:45 13.3 °C 11.7 °C 1020.5 hPa WSW 6.4 km/h 11.3 km/h 90 % 0.0 mm 540 W/m2
12:55 12.7 °C 11.1 °C 1020.5 hPa SSW 11.3 km/h 14.5 km/h 90 % 0.0 mm 179 W/m2
13:00 12.7 °C 11.2 °C 1020.5 hPa SSW 9.7 km/h 17.7 km/h 91 % 0.0 mm 179 W/m2
13:10 12.9 °C 11.2 °C 1020.5 hPa South 11.3 km/h 16.1 km/h 89 % 0.0 mm 545 W/m2
13:20 12.7 °C 10.9 °C 1020.5 hPa WSW 3.2 km/h 16.1 km/h 89 % 0.0 mm 290 W/m2
13:25 12.7 °C 11.0 °C 1020.5 hPa SSW 6.4 km/h 11.3 km/h 89 % 0.0 mm 234 W/m2
13:30 13.4 °C 11.7 °C 1020.9 hPa SSE 3.2 km/h 11.3 km/h 89 % 0.0 mm 575 W/m2
13:40 13.8 °C 11.7 °C 1020.9 hPa WSW 6.4 km/h 14.5 km/h 87 % 0.0 mm 555 W/m2
13:45 13.8 °C 11.7 °C 1020.9 hPa South 6.4 km/h 11.3 km/h 87 % 0.0 mm 517 W/m2
13:50 14.2 °C 11.9 °C 1020.9 hPa SSW 8.0 km/h 11.3 km/h 86 % 0.0 mm 497 W/m2
14:00 14.1 °C 11.6 °C 1020.9 hPa South 4.8 km/h 12.9 km/h 85 % 0.0 mm 548 W/m2
14:05 14.2 °C 11.9 °C 1020.9 hPa South 6.4 km/h 14.5 km/h 86 % 0.0 mm 563 W/m2
14:10 14.4 °C 11.9 °C 1020.9 hPa WSW 3.2 km/h 14.5 km/h 85 % 0.0 mm 554 W/m2
14:15 14.6 °C 11.9 °C 1020.9 hPa South 11.3 km/h 16.1 km/h 84 % 0.0 mm 573 W/m2
14:25 14.7 °C 12.0 °C 1020.9 hPa South 6.4 km/h 17.7 km/h 84 % 0.0 mm 485 W/m2
14:30 14.6 °C 11.7 °C 1021.2 hPa South 6.4 km/h 16.1 km/h 83 % 0.0 mm 339 W/m2
14:40 14.4 °C 12.0 °C 1021.2 hPa SW 6.4 km/h 14.5 km/h 85 % 0.0 mm 473 W/m2
14:45 14.4 °C 11.7 °C 1021.2 hPa SSW 11.3 km/h 16.1 km/h 84 % 0.0 mm 478 W/m2
14:50 14.4 °C 11.5 °C 1021.2 hPa South 11.3 km/h 17.7 km/h 83 % 0.0 mm 466 W/m2
14:55 14.6 °C 11.5 °C 1021.2 hPa SW 8.0 km/h 17.7 km/h 82 % 0.0 mm 239 W/m2
15:05 14.7 °C 11.7 °C 1021.2 hPa SSE 6.4 km/h 20.9 km/h 82 % 0.0 mm 162 W/m2
15:15 14.5 °C 11.8 °C 1021.6 hPa SSW 8.0 km/h 16.1 km/h 84 % 0.0 mm 497 W/m2
15:20 14.3 °C 11.4 °C 1021.6 hPa SSW 8.0 km/h 16.1 km/h 83 % 0.0 mm 485 W/m2
15:25 14.3 °C 11.5 °C 1021.6 hPa SSW 8.0 km/h 16.1 km/h 83 % 0.0 mm 241 W/m2
15:35 14.4 °C 11.6 °C 1021.6 hPa SW 3.2 km/h 16.1 km/h 83 % 0.0 mm 367 W/m2
15:40 14.3 °C 11.4 °C 1021.9 hPa South 11.3 km/h 14.5 km/h 83 % 0.0 mm 343 W/m2
15:45 14.7 °C 11.8 °C 1021.6 hPa South 9.7 km/h 14.5 km/h 83 % 0.0 mm 367 W/m2
15:50 14.7 °C 11.4 °C 1021.6 hPa SE 4.8 km/h 16.1 km/h 81 % 0.0 mm 380 W/m2
15:55 14.5 °C 11.1 °C 1021.9 hPa South 8.0 km/h 16.1 km/h 80 % 0.0 mm 309 W/m2
16:05 14.3 °C 11.1 °C 1021.9 hPa SSW 8.0 km/h 20.9 km/h 81 % 0.3 mm 294 W/m2
16:10 14.3 °C 11.1 °C 1021.9 hPa SSE 9.7 km/h 20.9 km/h 81 % 0.3 mm 281 W/m2
16:15 14.5 °C 11.3 °C 1021.9 hPa South 6.4 km/h 19.3 km/h 81 % 0.3 mm 271 W/m2
16:20 14.5 °C 11.3 °C 1021.9 hPa SSE 4.8 km/h 16.1 km/h 81 % 0.3 mm 257 W/m2
16:25 14.4 °C 10.8 °C 1021.9 hPa SSW 8.0 km/h 12.9 km/h 79 % 0.3 mm 244 W/m2
16:30 14.4 °C 11.0 °C 1021.9 hPa South 6.4 km/h 12.9 km/h 80 % 0.3 mm 232 W/m2
16:40 14.2 °C 10.6 °C 1022.2 hPa South 12.9 km/h 19.3 km/h 79 % 0.3 mm 218 W/m2
16:45 14.1 °C 10.5 °C 1022.2 hPa SSE 9.7 km/h 19.3 km/h 79 % 0.3 mm 206 W/m2
16:50 14.1 °C 10.7 °C 1022.2 hPa SSW 6.4 km/h 16.1 km/h 80 % 0.3 mm 74 W/m2
17:00 13.9 °C 10.7 °C 1022.2 hPa SSE 1.6 km/h 12.9 km/h 81 % 0.0 mm 40 W/m2
17:10 13.9 °C 10.5 °C 1022.2 hPa SSE 4.8 km/h 11.3 km/h 80 % 0.0 mm 37 W/m2
17:15 13.8 °C 10.4 °C 1022.2 hPa South 4.8 km/h 12.9 km/h 80 % 0.0 mm 56 W/m2
17:25 13.7 °C 10.3 °C 1022.2 hPa SSE 1.6 km/h 11.3 km/h 80 % 0.0 mm 30 W/m2
17:30 13.7 °C 10.3 °C 1022.2 hPa South 1.6 km/h 9.7 km/h 80 % 0.0 mm 30 W/m2
17:40 13.6 °C 10.4 °C 1022.6 hPa South 4.8 km/h 11.3 km/h 81 % 0.0 mm 26 W/m2
17:45 13.4 °C 10.2 °C 1022.6 hPa SSE 4.8 km/h 8.0 km/h 81 % 0.0 mm 23 W/m2
17:50 13.3 °C 10.3 °C 1022.6 hPa SE 8.0 km/h 8.0 km/h 82 % 0.0 mm 19 W/m2
17:55 13.2 °C 10.2 °C 1022.6 hPa SE 6.4 km/h 9.7 km/h 82 % 0.0 mm 19 W/m2
18:00 13.0 °C 10.0 °C 1022.6 hPa SE 3.2 km/h 11.3 km/h 82 % 0.0 mm 18 W/m2
18:05 12.8 °C 10.0 °C 1022.6 hPa SE 3.2 km/h 11.3 km/h 83 % 0.0 mm 14 W/m2
18:10 12.7 °C 9.7 °C 1022.9 hPa SSE 6.4 km/h 11.3 km/h 82 % 0.0 mm 12 W/m2
18:20 12.3 °C 9.5 °C 1022.9 hPa SE 3.2 km/h 6.4 km/h 83 % 0.0 mm 9 W/m2
18:25 12.1 °C 9.4 °C 1022.9 hPa SE 3.2 km/h 6.4 km/h 84 % 0.0 mm 5 W/m2
18:30 11.8 °C 9.4 °C 1022.9 hPa SE 1.6 km/h 6.4 km/h 85 % 0.0 mm 0 W/m2
18:40 11.3 °C 9.1 °C 1023.2 hPa Calm   8.0 km/h 86 % 0.0 mm 0 W/m2
18:45 11.1 °C 9.0 °C 1023.2 hPa Calm   4.8 km/h 87 % 0.0 mm 0 W/m2
18:50 10.7 °C 8.8 °C 1023.2 hPa Calm   3.2 km/h 88 % 0.0 mm 0 W/m2
19:00 10.1 °C 8.5 °C 1023.2 hPa Calm   3.2 km/h 90 % 0.0 mm 0 W/m2
19:10 9.6 °C 8.2 °C 1023.6 hPa Calm   1.6 km/h 91 % 0.0 mm 0 W/m2
19:15 9.5 °C 8.3 °C 1023.6 hPa Calm   1.6 km/h 92 % 0.0 mm 0 W/m2
19:25 9.5 °C 8.3 °C 1023.6 hPa Calm   3.2 km/h 92 % 0.0 mm 0 W/m2
19:30 9.1 °C 7.8 °C 1023.9 hPa Calm   3.2 km/h 92 % 0.0 mm 0 W/m2
19:35 9.0 °C 7.9 °C 1023.6 hPa Calm   1.6 km/h 93 % 0.0 mm 0 W/m2
19:40 9.0 °C 7.9 °C 1023.6 hPa SE 1.6 km/h 3.2 km/h 93 % 0.0 mm 0 W/m2
19:45 8.7 °C 7.7 °C 1023.6 hPa SE 1.6 km/h 3.2 km/h 93 % 0.0 mm 0 W/m2
19:50 8.7 °C 7.8 °C 1023.6 hPa Calm   4.8 km/h 94 % 0.0 mm 0 W/m2
19:55 8.8 °C 7.9 °C 1023.9 hPa ESE 1.6 km/h 4.8 km/h 94 % 0.0 mm 0 W/m2
20:00 8.9 °C 8.0 °C 1023.6 hPa Calm   4.8 km/h 94 % 0.0 mm 0 W/m2
20:05 8.9 °C 8.0 °C 1023.6 hPa ESE 3.2 km/h 4.8 km/h 94 % 0.0 mm 0 W/m2
20:10 8.8 °C 7.9 °C 1023.6 hPa ESE 1.6 km/h 4.8 km/h 94 % 0.0 mm 0 W/m2
20:20 8.6 °C 7.7 °C 1023.9 hPa Calm   4.8 km/h 94 % 0.0 mm 0 W/m2
20:25 8.6 °C 7.6 °C 1023.9 hPa Calm   4.8 km/h 94 % 0.0 mm 0 W/m2
20:30 8.7 °C 7.9 °C 1023.9 hPa ESE 1.6 km/h 4.8 km/h 95 % 0.0 mm 0 W/m2
20:35 8.5 °C 7.7 °C 1023.9 hPa Calm   6.4 km/h 95 % 0.0 mm 0 W/m2
20:40 8.5 °C 7.7 °C 1023.9 hPa Calm   6.4 km/h 95 % 0.0 mm 0 W/m2
20:45 8.4 °C 7.7 °C 1023.9 hPa Calm   3.2 km/h 95 % 0.0 mm 0 W/m2
20:50 8.4 °C 7.6 °C 1023.9 hPa Calm   3.2 km/h 95 % 0.0 mm 0 W/m2
20:55 8.4 °C 7.7 °C 1023.9 hPa Calm   3.2 km/h 95 % 0.0 mm 0 W/m2
21:00 8.7 °C 7.9 °C 1023.9 hPa Calm   3.2 km/h 95 % 0.0 mm 0 W/m2
21:10 8.6 °C 7.8 °C 1023.9 hPa ESE 1.6 km/h 3.2 km/h 95 % 0.0 mm 0 W/m2
21:20 8.4 °C 7.7 °C 1023.9 hPa Calm   4.8 km/h 95 % 0.0 mm 0 W/m2
21:25 8.6 °C 8.0 °C 1023.9 hPa ESE 1.6 km/h 4.8 km/h 96 % 0.0 mm 0 W/m2
21:30 8.6 °C 7.9 °C 1023.9 hPa South 3.2 km/h 6.4 km/h 95 % 0.0 mm 0 W/m2
21:35 8.8 °C 8.2 °C 1023.9 hPa SE 3.2 km/h 8.0 km/h 96 % 0.0 mm 0 W/m2
21:45 9.0 °C 8.2 °C 1023.9 hPa Calm   8.0 km/h 95 % 0.0 mm 0 W/m2
21:50 9.0 °C 8.2 °C 1023.9 hPa SE 3.2 km/h 8.0 km/h 95 % 0.0 mm 0 W/m2
22:00 8.7 °C 7.8 °C 1024.3 hPa Calm   4.8 km/h 94 % 0.0 mm 0 W/m2
22:05 8.7 °C 8.0 °C 1024.3 hPa ESE 3.2 km/h 6.4 km/h 95 % 0.0 mm 0 W/m2
22:10 8.7 °C 7.9 °C 1024.3 hPa Calm   6.4 km/h 95 % 0.0 mm 0 W/m2
22:20 8.6 °C 7.8 °C 1024.3 hPa Calm   8.0 km/h 95 % 0.0 mm 0 W/m2
22:30 8.9 °C 8.3 °C 1023.9 hPa SE 6.4 km/h 11.3 km/h 96 % 0.0 mm 0 W/m2
22:35 9.1 °C 8.5 °C 1023.9 hPa SSE 8.0 km/h 11.3 km/h 96 % 0.0 mm 0 W/m2
22:40 9.4 °C 8.7 °C 1023.9 hPa SE 3.2 km/h 11.3 km/h 95 % 0.0 mm 0 W/m2
22:45 9.4 °C 8.6 °C 1023.9 hPa SE 1.6 km/h 11.3 km/h 95 % 0.0 mm 0 W/m2
22:55 9.4 °C 8.6 °C 1023.9 hPa SE 1.6 km/h 9.7 km/h 95 % 0.0 mm 0 W/m2
23:00 9.3 °C 8.5 °C 1024.3 hPa ESE 3.2 km/h 8.0 km/h 95 % 0.0 mm 0 W/m2
23:10 9.1 °C 8.2 °C 1024.3 hPa Calm   9.7 km/h 94 % 0.0 mm 0 W/m2
23:15 9.1 °C 8.3 °C 1024.3 hPa SE 3.2 km/h 9.7 km/h 95 % 0.0 mm 0 W/m2
23:20 9.1 °C 8.3 °C 1024.3 hPa ESE 1.6 km/h 8.0 km/h 95 % 0.0 mm 0 W/m2
23:30 9.0 °C 8.2 °C 1024.3 hPa SE 3.2 km/h 8.0 km/h 95 % 0.0 mm 0 W/m2
23:40 8.9 °C 8.1 °C 1024.3 hPa ESE 3.2 km/h 9.7 km/h 95 % 0.0 mm 0 W/m2
23:45 8.8 °C 8.1 °C 1024.3 hPa Calm   6.4 km/h 95 % 0.0 mm 0 W/m2
23:50 8.9 °C 8.1 °C 1024.3 hPa SE 4.8 km/h 6.4 km/h 95 % 0.0 mm 0 W/m2
Avec l'autorisation de Weather Underground - 1.5 mb